createdAt,value
2023-04-20T00:10:49.897Z,7.00
2023-04-20T00:31:19.038Z,5.60
2023-04-20T00:51:53.574Z,7.30
2023-04-20T01:11:41.988Z,6.90
2023-04-20T01:24:50.137Z,7.60
2023-04-20T01:44:40.405Z,7.90
2023-04-20T02:04:29.111Z,7.00
2023-04-20T02:24:19.309Z,10.40
2023-04-20T02:44:28.408Z,8.30
2023-04-20T03:04:49.194Z,7.50
2023-04-20T03:24:57.980Z,7.90
2023-04-20T03:37:49.804Z,9.20
2023-04-20T03:58:32.838Z,8.10
2023-04-20T04:05:51.758Z,9.60
2023-04-20T04:12:15.612Z,8.70
2023-04-20T04:32:33.391Z,9.30
2023-04-20T04:54:19.692Z,8.20
2023-04-20T05:14:34.076Z,8.60
2023-04-20T05:34:12.258Z,7.70
2023-04-20T05:54:14.150Z,9.90
2023-04-20T06:07:44.987Z,9.10
2023-04-20T06:27:34.859Z,10.30
2023-04-20T06:47:23.780Z,10.50
2023-04-20T06:53:19.334Z,10.20
2023-04-20T07:13:17.640Z,11.40
2023-04-20T07:32:49.394Z,11.40
2023-04-20T07:52:40.464Z,11.60
2023-04-20T08:12:34.062Z,11.50
2023-04-20T08:32:23.722Z,11.50
2023-04-20T08:52:14.647Z,12.40
2023-04-20T08:59:34.109Z,12.80
2023-04-20T09:19:34.938Z,14.80
2023-04-20T09:39:25.324Z,15.10
2023-04-20T09:59:54.770Z,16.00
2023-04-20T10:19:59.026Z,15.90
2023-04-20T10:40:30.888Z,15.20
2023-04-20T11:00:42.989Z,15.70
2023-04-20T11:07:47.508Z,17.00
2023-04-20T11:14:48.988Z,15.70
2023-04-20T11:54:49.720Z,16.00
2023-04-20T12:14:32.076Z,15.40
2023-04-20T12:34:22.759Z,15.30
2023-04-20T13:08:52.812Z,14.40
2023-04-20T13:22:03.117Z,14.70
2023-04-20T13:41:53.311Z,14.60
2023-04-20T14:01:43.105Z,12.70
2023-04-20T14:21:08.025Z,13.20
2023-04-20T14:27:54.997Z,11.70
2023-04-20T14:41:40.066Z,12.80
2023-04-20T15:01:58.668Z,12.90
2023-04-20T15:23:15.910Z,13.10
2023-04-20T15:30:18.169Z,13.70
2023-04-20T15:50:35.492Z,14.70
2023-04-20T16:10:03.972Z,14.70
2023-04-20T16:30:32.444Z,17.80
2023-04-20T16:57:10.849Z,17.60
2023-04-20T17:10:18.261Z,15.70
2023-04-20T17:37:19.720Z,17.80
2023-04-20T17:57:39.881Z,17.30
2023-04-20T18:10:41.140Z,17.50
2023-04-20T18:17:28.106Z,17.40
2023-04-20T18:23:30.412Z,17.50
2023-04-20T18:29:08.880Z,16.60
2023-04-20T18:56:26.454Z,16.20
2023-04-20T19:16:20.008Z,18.00
2023-04-20T19:35:55.904Z,19.30
2023-04-20T20:02:09.543Z,20.00
2023-04-20T20:14:37.794Z,19.40
2023-04-20T20:20:56.632Z,18.50
2023-04-20T20:41:06.584Z,26.20
2023-04-20T21:01:26.559Z,28.90
2023-04-20T21:27:57.331Z,24.50
2023-04-20T21:47:47.038Z,24.60
2023-04-20T22:07:17.275Z,23.70
2023-04-20T22:27:20.825Z,21.10
2023-04-20T22:40:29.628Z,18.50
2023-04-20T22:54:28.741Z,18.70
2023-04-20T23:14:36.337Z,14.60
2023-04-20T23:34:52.995Z,13.80
2023-04-20T23:55:21.919Z,10.80
